Time;durP1;ratioP1;P1;durP2;ratioP2;P2;SDS_P1;SDS_P2;PMS_P1;PMS_P2;Temp;Humidity;BMP_temperature;BMP_pressure;BME280_temperature;BME280_humidity;BME280_pressure;Samples;Min_cycle;Max_cycle;Signal;HPM_P1;HPM_P2
2023/06/13 00:00:57;;;;;;;6.30;5.15;;;;;;;18.49;67.59;94497.56;5065957;28;20039;-76
2023/06/13 00:03:22;;;;;;;6.38;5.03;;;;;;;18.47;67.08;94490.97;5066252;28;20020;-76
2023/06/13 00:05:48;;;;;;;8.32;4.80;;;;;;;18.49;67.26;94496.78;5066738;28;20024;-77
2023/06/13 00:08:17;;;;;;;7.03;5.07;;;;;;;18.49;67.55;94491.97;5045712;28;20095;-77
2023/06/13 00:10:46;;;;;;;5.70;5.10;;;;;;;18.49;67.64;94488.44;5046683;28;20051;-76
2023/06/13 00:13:13;;;;;;;7.25;4.60;;;;;;;18.45;67.70;94488.66;5046173;28;20039;-76
2023/06/13 00:15:41;;;;;;;8.25;5.20;;;;;;;18.46;67.73;94481.84;5045820;28;20064;-77
2023/06/13 00:18:06;;;;;;;10.13;6.10;;;;;;;18.47;67.49;94488.19;5045736;28;20496;-76
2023/06/13 00:20:34;;;;;;;6.25;5.65;;;;;;;18.44;67.76;94483.59;5046060;28;20074;-76
2023/06/13 00:23:03;;;;;;;6.65;5.95;;;;;;;18.44;68.05;94480.81;5045985;28;20499;-76
2023/06/13 00:25:29;;;;;;;9.15;6.70;;;;;;;18.43;67.85;94477.28;5046020;28;20029;-76
2023/06/13 00:27:54;;;;;;;9.10;6.80;;;;;;;18.42;68.08;94475.00;5044870;28;20029;-76
2023/06/13 00:30:19;;;;;;;10.43;7.00;;;;;;;18.43;67.71;94468.19;5045119;28;20079;-76
2023/06/13 00:32:45;;;;;;;7.40;6.65;;;;;;;18.44;67.85;94472.47;5045802;28;20427;-75
2023/06/13 00:35:11;;;;;;;7.88;7.05;;;;;;;18.44;67.88;94475.25;5045395;28;20479;-76
2023/06/13 00:37:38;;;;;;;9.23;6.45;;;;;;;18.46;67.75;94475.50;5045957;28;20102;-76
2023/06/13 00:40:05;;;;;;;7.15;6.50;;;;;;;18.46;67.62;94486.66;5045413;28;20029;-76
2023/06/13 00:42:31;;;;;;;9.30;6.20;;;;;;;18.45;67.74;94485.13;5045263;28;20111;-76
2023/06/13 00:45:18;;;;;;;8.00;6.18;;;;;;;18.47;67.75;94469.47;5046058;28;20808;-77
2023/06/13 00:47:45;;;;;;;7.07;5.68;;;;;;;18.47;67.73;94471.50;5044715;28;20108;-76
2023/06/13 00:50:12;;;;;;;6.32;5.72;;;;;;;18.47;67.59;94468.72;5045705;28;20104;-76
2023/06/13 00:52:39;;;;;;;6.13;5.30;;;;;;;18.46;67.62;94481.84;5044463;28;20021;-76
2023/06/13 00:55:05;;;;;;;6.07;5.47;;;;;;;18.46;67.14;94467.16;5044997;28;20025;-76
2023/06/13 00:57:32;;;;;;;7.85;4.90;;;;;;;18.45;67.55;94469.19;5044332;28;20491;-76
2023/06/13 00:59:57;;;;;;;6.65;5.40;;;;;;;18.45;67.40;94466.41;5043396;28;20032;-76
2023/06/13 01:02:23;;;;;;;6.25;5.65;;;;;;;18.43;67.43;94465.41;5044344;28;20148;-76
2023/06/13 01:04:51;;;;;;;7.38;5.40;;;;;;;18.43;67.59;94468.19;5044756;28;20036;-76
2023/06/13 01:07:16;;;;;;;7.72;5.35;;;;;;;18.42;67.39;94467.41;5057593;28;20037;-76
2023/06/13 01:09:42;;;;;;;8.43;5.40;;;;;;;18.41;67.88;94467.91;5064724;28;20020;-76
2023/06/13 01:12:21;;;;;;;6.38;5.32;;;;;;;18.41;67.57;94467.91;5064801;28;20028;-75
2023/06/13 01:15:05;;;;;;;7.43;5.22;;;;;;;18.37;67.71;94459.81;5063037;28;20109;-76
2023/06/13 01:17:36;;;;;;;6.43;5.75;;;;;;;18.36;67.41;94469.41;5047429;28;20040;-76
2023/06/13 01:20:06;;;;;;;7.30;5.45;;;;;;;18.35;67.67;94459.56;5064038;28;20032;-75
2023/06/13 01:22:43;;;;;;;7.72;5.20;;;;;;;18.37;67.85;94467.41;5063057;28;20486;-75
2023/06/13 01:25:28;;;;;;;9.45;5.53;;;;;;;18.35;67.75;94470.69;5063664;28;20513;-75
2023/06/13 01:27:56;;;;;;;6.25;5.40;;;;;;;18.32;67.98;94471.66;5066528;28;20086;-77
2023/06/13 01:30:22;;;;;;;6.20;5.47;;;;;;;18.32;67.84;94471.66;5063408;28;20024;-75
2023/06/13 01:32:48;;;;;;;6.45;5.43;;;;;;;18.30;68.17;94472.19;5064207;28;20094;-76
2023/06/13 01:35:14;;;;;;;7.68;5.95;;;;;;;18.32;67.98;94468.88;5062718;28;20067;-75
2023/06/13 01:37:39;;;;;;;6.75;5.57;;;;;;;18.33;67.60;94469.66;5063784;28;20021;-75
2023/06/13 01:40:07;;;;;;;7.38;6.10;;;;;;;18.32;67.61;94474.44;5064235;28;20116;-75
2023/06/13 01:42:33;;;;;;;5.63;5.10;;;;;;;18.24;67.83;94462.28;5064512;28;20029;-76
2023/06/13 01:44:58;;;;;;;8.70;6.03;;;;;;;18.31;67.98;94481.28;5063189;28;20028;-76
2023/06/13 01:47:32;;;;;;;7.90;5.75;;;;;;;18.28;68.03;94465.56;5062645;28;20051;-76
2023/06/13 01:49:58;;;;;;;11.43;6.60;;;;;;;18.27;67.92;94473.16;5063578;28;20028;-75
2023/06/13 01:52:34;;;;;;;7.07;5.95;;;;;;;18.26;68.09;94465.31;5062598;28;20036;-75
2023/06/13 01:55:03;;;;;;;6.68;6.07;;;;;;;18.25;68.07;94466.59;5063435;28;20459;-76
2023/06/13 01:57:33;;;;;;;8.95;5.80;;;;;;;18.21;68.02;94466.03;5064423;28;20112;-76
2023/06/13 02:00:00;;;;;;;8.65;6.65;;;;;;;18.18;68.29;94464.25;5062905;28;20040;-76
2023/06/13 02:02:26;;;;;;;8.65;6.15;;;;;;;18.18;68.41;94461.47;5063351;28;20051;-77
2023/06/13 02:04:51;;;;;;;8.95;7.10;;;;;;;18.17;68.04;94468.28;5063068;28;20089;-75
2023/06/13 02:07:18;;;;;;;8.10;6.82;;;;;;;18.15;68.29;94465.25;5064544;28;20109;-76
2023/06/13 02:09:43;;;;;;;7.57;5.88;;;;;;;18.12;68.16;94467.03;5064387;28;20029;-76
2023/06/13 02:12:10;;;;;;;6.47;5.82;;;;;;;18.12;68.32;94464.25;5064316;28;20514;-75
2023/06/13 02:14:36;;;;;;;8.82;6.40;;;;;;;18.11;68.30;94459.91;5063810;28;20175;-76
2023/06/13 02:17:02;;;;;;;6.40;5.78;;;;;;;18.07;68.46;94461.44;5062554;28;20439;-76
2023/06/13 02:19:28;;;;;;;8.20;6.90;;;;;;;18.03;68.11;94465.19;5064072;28;20518;-76
2023/06/13 02:21:53;;;;;;;8.98;6.97;;;;;;;18.02;68.29;94465.69;5063968;28;20040;-78
2023/06/13 02:24:19;;;;;;;8.55;6.95;;;;;;;18.00;68.25;94457.06;5064387;28;20025;-78
2023/06/13 02:26:45;;;;;;;11.75;6.95;;;;;;;17.97;68.37;94452.53;5066169;28;20025;-78
2023/06/13 02:29:11;;;;;;;11.38;6.88;;;;;;;17.97;68.73;94458.09;5068896;28;20024;-78
2023/06/13 02:31:38;;;;;;;9.98;6.95;;;;;;;17.94;68.79;94465.38;5066320;28;20021;-77
2023/06/13 02:34:03;;;;;;;10.20;7.20;;;;;;;17.91;68.97;94463.63;5068283;28;20082;-77
2023/06/13 02:36:29;;;;;;;8.80;6.95;;;;;;;17.91;68.61;94460.06;5067782;28;20028;-77
2023/06/13 02:38:54;;;;;;;10.90;6.65;;;;;;;17.90;68.99;94472.47;5067952;28;20024;-77
2023/06/13 02:41:20;;;;;;;9.65;6.97;;;;;;;17.89;69.04;94468.91;5067866;28;20108;-77
2023/06/13 02:43:45;;;;;;;9.50;7.45;;;;;;;17.90;68.76;94469.69;5068025;28;20025;-77
2023/06/13 02:46:10;;;;;;;10.13;7.70;;;;;;;17.90;68.90;94469.69;5068187;28;20631;-77
2023/06/13 02:48:36;;;;;;;8.77;7.50;;;;;;;17.88;69.05;94461.81;5067175;28;20021;-77
2023/06/13 02:51:03;;;;;;;11.23;7.45;;;;;;;17.89;69.09;94470.91;5068434;28;20017;-77
2023/06/13 02:53:28;;;;;;;13.15;9.82;;;;;;;17.89;69.27;94479.25;5067228;28;20032;-77
2023/06/13 02:55:54;;;;;;;11.93;8.07;;;;;;;17.92;69.11;94472.72;5067866;28;20103;-76
2023/06/13 02:58:20;;;;;;;10.23;7.65;;;;;;;17.92;69.21;94478.28;5067279;28;20033;-78
2023/06/13 03:00:45;;;;;;;8.60;7.78;;;;;;;17.94;69.51;94475.75;5068359;28;20443;-77
2023/06/13 03:03:11;;;;;;;11.40;8.45;;;;;;;17.96;69.33;94481.59;5068048;28;20521;-78
2023/06/13 03:05:36;;;;;;;11.15;8.85;;;;;;;17.95;69.43;94477.28;5067623;28;20020;-77
2023/06/13 03:08:02;;;;;;;9.55;7.75;;;;;;;17.97;69.33;94480.34;5068040;28;20556;-77
2023/06/13 03:10:27;;;;;;;9.18;8.07;;;;;;;17.99;69.43;94486.16;5066676;28;20089;-76
2023/06/13 03:12:53;;;;;;;10.63;8.77;;;;;;;18.01;69.43;94480.88;5068031;28;20028;-77
2023/06/13 03:15:18;;;;;;;9.57;8.52;;;;;;;18.02;69.29;94487.94;5066873;28;20025;-76
2023/06/13 03:17:44;;;;;;;11.63;8.70;;;;;;;18.05;69.21;94495.28;5066117;28;20487;-76
2023/06/13 03:20:11;;;;;;;10.65;9.07;;;;;;;18.09;69.36;94492.28;5067268;28;20070;-77
2023/06/13 03:22:36;;;;;;;12.32;9.02;;;;;;;18.11;68.99;94498.84;5066780;28;20063;-76
2023/06/13 03:25:05;;;;;;;12.80;10.05;;;;;;;18.14;68.79;94489.53;5067690;28;20056;-76
2023/06/13 03:27:33;;;;;;;13.07;9.70;;;;;;;18.17;68.75;94491.31;5066656;28;20090;-77
2023/06/13 03:29:59;;;;;;;11.98;9.82;;;;;;;18.21;68.85;94491.84;5067511;28;20028;-77
2023/06/13 03:32:25;;;;;;;11.07;9.65;;;;;;;18.24;68.81;94488.09;5066850;28;20033;-76
2023/06/13 03:34:52;;;;;;;11.27;9.18;;;;;;;18.26;68.76;94479.97;5067212;28;20020;-77
2023/06/13 03:37:18;;;;;;;11.52;9.80;;;;;;;18.27;68.70;94484.28;5066412;28;20032;-78
2023/06/13 03:39:43;;;;;;;12.82;9.60;;;;;;;18.29;68.49;94484.56;5066027;28;20028;-78
2023/06/13 03:42:10;;;;;;;11.52;9.63;;;;;;;18.33;68.59;94483.56;5066665;28;20032;-78
2023/06/13 03:44:35;;;;;;;9.93;8.75;;;;;;;18.31;68.08;94489.63;5065212;28;20514;-77
2023/06/13 03:47:01;;;;;;;12.70;9.57;;;;;;;18.33;68.49;94486.34;5069216;28;20024;-78
2023/06/13 03:49:27;;;;;;;11.02;9.70;;;;;;;18.33;68.34;94492.66;5065906;28;20035;-77
2023/06/13 03:51:54;;;;;;;11.13;9.98;;;;;;;18.35;68.17;94495.72;5067671;28;20025;-76
2023/06/13 03:54:21;;;;;;;12.27;9.77;;;;;;;18.38;68.63;94496.75;5065762;28;20082;-77
2023/06/13 03:56:46;;;;;;;11.25;9.23;;;;;;;18.36;68.29;94494.47;5066731;28;20116;-77
2023/06/13 03:59:12;;;;;;;12.45;9.50;;;;;;;18.39;68.38;94503.81;5066736;28;20203;-77
2023/06/13 04:01:37;;;;;;;15.80;10.07;;;;;;;18.41;68.34;94502.06;5065993;28;20104;-77
2023/06/13 04:04:03;;;;;;;11.38;9.48;;;;;;;18.42;68.18;94497.28;5067989;28;20028;-76
2023/06/13 04:06:28;;;;;;;13.75;9.55;;;;;;;18.43;67.56;94499.53;5067357;28;20496;-77
2023/06/13 04:08:54;;;;;;;14.10;10.60;;;;;;;18.42;67.57;94503.59;5066781;28;20470;-76
2023/06/13 04:11:20;;;;;;;11.65;10.45;;;;;;;18.48;67.82;94506.41;5066058;28;20024;-76
2023/06/13 04:13:45;;;;;;;12.85;10.60;;;;;;;18.50;67.67;94506.66;5066115;28;20040;-76
2023/06/13 04:16:11;;;;;;;13.35;10.27;;;;;;;18.53;67.73;94505.66;5065924;28;20032;-76
2023/06/13 04:18:37;;;;;;;12.50;11.05;;;;;;;18.55;67.50;94509.47;5065984;28;20052;-76
2023/06/13 04:21:06;;;;;;;12.15;10.18;;;;;;;18.56;67.26;94510.97;5066371;28;20093;-76
2023/06/13 04:23:32;;;;;;;12.98;11.45;;;;;;;18.59;67.11;94512.03;5066154;28;20028;-76
2023/06/13 04:26:02;;;;;;;15.90;11.60;;;;;;;18.64;67.27;94516.06;5066573;28;20108;-76
2023/06/13 04:28:29;;;;;;;12.85;11.27;;;;;;;18.66;66.72;94519.13;5065336;28;20055;-76
2023/06/13 04:31:00;;;;;;;12.45;11.10;;;;;;;18.63;66.40;94520.13;5066336;28;20031;-76
2023/06/13 04:33:26;;;;;;;15.38;11.95;;;;;;;18.38;66.75;94516.22;5066091;28;20025;-76
2023/06/13 04:35:53;;;;;;;15.55;11.77;;;;;;;18.44;67.15;94517.00;5065778;28;20082;-76
2023/06/13 04:38:21;;;;;;;15.50;11.75;;;;;;;18.54;66.92;94524.66;5066221;28;20033;-77
2023/06/13 04:40:46;;;;;;;15.45;11.13;;;;;;;18.63;66.37;94532.00;5065083;28;20025;-76
2023/06/13 04:43:15;;;;;;;15.68;11.73;;;;;;;18.67;65.94;94523.44;5066613;28;20028;-77
2023/06/13 04:45:44;;;;;;;14.95;12.30;;;;;;;18.74;65.65;94528.53;5064935;28;20029;-77
2023/06/13 04:48:10;;;;;;;15.23;11.45;;;;;;;18.80;64.86;94523.75;5065156;28;20064;-77
2023/06/13 04:50:40;;;;;;;13.52;11.18;;;;;;;18.85;64.76;94523.03;5065045;28;20066;-78
2023/06/13 04:53:07;;;;;;;12.18;10.63;;;;;;;18.93;64.96;94518.50;5065536;28;20491;-77
2023/06/13 04:55:33;;;;;;;14.10;11.00;;;;;;;18.97;65.08;94530.16;5065776;28;20024;-76
2023/06/13 04:57:59;;;;;;;13.85;10.65;;;;;;;19.02;64.26;94532.19;5064244;28;20028;-76
2023/06/13 05:00:25;;;;;;;17.13;11.75;;;;;;;19.05;64.09;94531.19;5065566;28;20107;-76
2023/06/13 05:02:51;;;;;;;14.02;11.05;;;;;;;19.04;63.94;94531.72;5064571;28;20032;-76
2023/06/13 05:05:18;;;;;;;15.65;11.13;;;;;;;19.05;63.72;94536.00;5065845;28;20038;-76
2023/06/13 05:07:44;;;;;;;13.70;11.65;;;;;;;19.12;63.31;94538.31;5064641;28;20040;-76
2023/06/13 05:10:09;;;;;;;14.52;10.90;;;;;;;19.15;63.56;94540.06;5067106;28;20427;-76
2023/06/13 05:12:34;;;;;;;12.68;10.30;;;;;;;19.17;63.57;94548.72;5065233;28;20059;-76
2023/06/13 05:15:00;;;;;;;11.95;9.55;;;;;;;19.21;63.13;94543.66;5064955;28;20032;-76
2023/06/13 05:17:27;;;;;;;12.23;10.18;;;;;;;19.25;62.73;94541.38;5065621;28;20033;-77
2023/06/13 05:19:56;;;;;;;11.45;9.65;;;;;;;19.33;63.27;94533.28;5064526;28;20150;-77
2023/06/13 05:22:21;;;;;;;12.82;9.48;;;;;;;19.40;63.18;94538.38;5065525;28;20032;-76
2023/06/13 05:24:47;;;;;;;11.55;10.35;;;;;;;19.45;62.74;94534.84;5064269;28;20020;-76
2023/06/13 05:27:13;;;;;;;11.80;10.20;;;;;;;19.52;62.47;94536.34;5065047;28;20051;-76
2023/06/13 05:29:38;;;;;;;11.20;9.65;;;;;;;19.60;62.42;94534.59;5064811;28;20116;-77
2023/06/13 05:32:04;;;;;;;13.40;10.07;;;;;;;19.63;62.07;94539.19;5064703;28;20108;-78
2023/06/13 05:34:31;;;;;;;11.20;9.98;;;;;;;19.70;62.33;94537.91;5065075;28;20028;-78
2023/06/13 05:36:56;;;;;;;10.60;9.50;;;;;;;19.71;62.70;94540.19;5064582;28;20055;-75
2023/06/13 05:39:22;;;;;;;10.35;9.10;;;;;;;19.77;62.54;94534.63;5065266;28;20414;-77
2023/06/13 05:41:47;;;;;;;13.32;9.32;;;;;;;19.82;61.75;94536.66;5064404;28;20160;-78
2023/06/13 05:44:13;;;;;;;10.32;8.75;;;;;;;19.80;59.77;94536.41;5065041;28;20403;-76
2023/06/13 05:46:38;;;;;;;9.77;8.43;;;;;;;19.83;59.78;94536.13;5063997;28;20075;-76
2023/06/13 05:49:04;;;;;;;10.15;9.05;;;;;;;19.87;60.28;94542.22;5064338;28;20388;-77
2023/06/13 05:51:30;;;;;;;9.48;8.25;;;;;;;19.95;60.47;94545.25;5046604;28;20060;-76
2023/06/13 05:53:55;;;;;;;10.45;9.00;;;;;;;19.99;60.61;94545.00;5064094;28;20088;-76
2023/06/13 05:56:20;;;;;;;10.45;9.38;;;;;;;20.05;60.18;94549.31;5065344;28;20029;-76
2023/06/13 05:58:46;;;;;;;9.50;8.50;;;;;;;20.07;60.44;94552.38;5064167;28;20021;-78
2023/06/13 06:01:11;;;;;;;10.88;9.07;;;;;;;20.12;59.76;94557.16;5065835;28;20028;-78
2023/06/13 06:03:37;;;;;;;8.90;8.00;;;;;;;20.16;59.71;94554.13;5077427;28;20048;-77
2023/06/13 06:06:02;;;;;;;9.27;8.30;;;;;;;20.21;60.04;94550.56;5064817;28;20029;-77
2023/06/13 06:08:28;;;;;;;11.48;8.32;;;;;;;20.27;58.35;94545.75;5064692;28;20020;-77
2023/06/13 06:10:53;;;;;;;9.32;8.35;;;;;;;20.34;58.54;94541.66;5064145;28;20032;-78
2023/06/13 06:13:19;;;;;;;11.50;8.68;;;;;;;20.42;58.61;94542.69;5065383;28;20020;-77
2023/06/13 06:15:44;;;;;;;10.20;8.55;;;;;;;20.51;58.54;94536.84;5064393;28;20398;-77
2023/06/13 06:18:10;;;;;;;9.45;7.55;;;;;;;20.60;58.42;94546.97;5064739;28;20699;-77
2023/06/13 06:20:35;;;;;;;11.57;8.90;;;;;;;20.67;58.24;94550.00;5063469;28;20041;-77
2023/06/13 06:23:01;;;;;;;11.10;8.55;;;;;;;20.74;58.21;94545.13;5064519;28;20086;-77
2023/06/13 06:25:26;;;;;;;11.52;8.25;;;;;;;20.76;58.44;94545.38;5064159;28;20025;-77
2023/06/13 06:27:52;;;;;;;8.88;7.93;;;;;;;20.83;57.73;94551.22;5064338;28;20483;-78
2023/06/13 06:30:17;;;;;;;8.70;7.65;;;;;;;20.86;57.64;94550.16;5062864;28;20502;-77
2023/06/13 06:32:43;;;;;;;8.98;8.07;;;;;;;20.93;57.10;94544.06;5064101;28;20028;-78
2023/06/13 06:35:10;;;;;;;8.63;7.22;;;;;;;21.01;57.19;94546.31;5062744;28;20149;-77
2023/06/13 06:37:36;;;;;;;8.95;7.75;;;;;;;21.09;57.32;94542.44;5069387;28;20032;-77
2023/06/13 06:40:01;;;;;;;8.68;7.60;;;;;;;21.19;57.08;94543.69;5077509;28;20548;-78
2023/06/13 06:42:26;;;;;;;8.00;6.40;;;;;;;21.23;56.67;94543.41;5071720;28;20020;-76
2023/06/13 06:44:52;;;;;;;8.23;6.82;;;;;;;21.30;56.06;94537.28;5064382;28;20576;-78
2023/06/13 06:47:17;;;;;;;7.97;6.47;;;;;;;21.33;55.41;94539.03;5063544;28;20040;-77
2023/06/13 06:49:44;;;;;;;10.57;6.63;;;;;;;21.37;55.87;94533.94;5063778;28;20036;-77
2023/06/13 06:52:10;;;;;;;7.65;6.43;;;;;;;21.43;55.83;94542.28;5063781;28;20074;-77
2023/06/13 06:54:35;;;;;;;10.52;6.20;;;;;;;21.50;55.22;94533.34;5063865;28;20020;-77
2023/06/13 06:57:02;;;;;;;8.73;6.28;;;;;;;21.60;55.47;94537.34;5064194;28;20028;-77
2023/06/13 06:59:27;;;;;;;11.25;8.80;;;;;;;21.70;55.34;94543.41;5063395;28;20099;-77
2023/06/13 07:01:53;;;;;;;12.27;9.45;;;;;;;21.71;55.83;94544.91;5064478;28;20495;-77
2023/06/13 07:04:18;;;;;;;13.50;9.82;;;;;;;21.62;55.60;94543.19;5061667;28;20020;-77
2023/06/13 07:06:44;;;;;;;13.20;9.63;;;;;;;21.63;55.54;94527.94;5063850;28;20083;-77
2023/06/13 07:09:10;;;;;;;12.75;9.32;;;;;;;21.67;55.29;94536.78;5063354;28;20072;-77
2023/06/13 07:11:36;;;;;;;11.18;9.23;;;;;;;21.68;55.37;94535.53;5062728;28;20067;-77
2023/06/13 07:14:01;;;;;;;11.30;9.73;;;;;;;21.69;55.75;94534.25;5067707;28;20027;-76
2023/06/13 07:16:26;;;;;;;12.93;9.52;;;;;;;21.83;54.91;94537.19;5067065;28;20578;-77
2023/06/13 07:18:52;;;;;;;12.98;9.65;;;;;;;21.88;54.77;94537.16;5069078;28;20063;-77
2023/06/13 07:21:17;;;;;;;15.02;9.95;;;;;;;21.94;54.36;94532.25;5065183;28;20116;-77
2023/06/13 07:23:43;;;;;;;12.52;9.05;;;;;;;22.08;53.94;94524.00;5067621;28;20039;-77
2023/06/13 07:26:08;;;;;;;12.20;9.68;;;;;;;22.22;54.08;94531.28;5066735;28;20111;-77
2023/06/13 07:28:34;;;;;;;12.68;9.40;;;;;;;22.21;54.22;94530.53;5067200;28;20040;-77
2023/06/13 07:30:59;;;;;;;11.85;8.85;;;;;;;22.33;53.65;94533.22;5065774;28;20028;-77
2023/06/13 07:33:25;;;;;;;10.73;8.75;;;;;;;22.33;53.54;94522.78;5066532;28;20120;-77
2023/06/13 07:35:52;;;;;;;12.82;9.63;;;;;;;22.31;53.56;94524.56;5067527;28;20417;-76
2023/06/13 07:38:19;;;;;;;11.00;8.98;;;;;;;22.46;53.68;94519.34;5066492;28;20020;-76
2023/06/13 07:40:45;;;;;;;11.85;8.15;;;;;;;22.50;53.76;94517.75;5067472;28;20132;-76
2023/06/13 07:43:11;;;;;;;11.32;8.73;;;;;;;22.51;53.33;94524.88;5066102;28;20078;-76
2023/06/13 07:45:36;;;;;;;9.45;8.50;;;;;;;22.56;52.54;94517.72;5067141;28;20020;-76
2023/06/13 07:48:01;;;;;;;11.80;9.38;;;;;;;22.51;52.72;94524.13;5066324;28;20024;-76
2023/06/13 07:50:28;;;;;;;12.10;9.20;;;;;;;22.50;52.60;94520.56;5064924;28;20123;-76
2023/06/13 07:52:53;;;;;;;10.90;8.77;;;;;;;22.52;51.95;94528.44;5066700;28;20036;-77
2023/06/13 07:55:19;;;;;;;10.85;8.50;;;;;;;22.59;51.74;94524.28;5066142;28;20043;-77
2023/06/13 07:57:45;;;;;;;12.85;8.68;;;;;;;22.61;52.07;94527.34;5065607;28;20025;-76
2023/06/13 08:00:17;;;;;;;14.00;9.30;;;;;;;22.64;52.35;94524.22;5065569;28;20017;-77
2023/06/13 08:02:44;;;;;;;12.25;10.68;;;;;;;22.68;52.33;94526.75;5065444;28;20033;-77
2023/06/13 08:05:10;;;;;;;10.55;9.45;;;;;;;22.71;52.50;94522.88;5064634;28;20425;-76
2023/06/13 08:07:36;;;;;;;10.63;9.52;;;;;;;22.67;52.25;94520.38;5066200;28;20068;-76
2023/06/13 08:10:01;;;;;;;12.30;9.07;;;;;;;22.81;51.24;94526.84;5066342;28;20104;-76
2023/06/13 08:12:26;;;;;;;11.70;8.77;;;;;;;22.98;50.86;94521.06;5065680;28;20028;-76
2023/06/13 08:14:52;;;;;;;13.90;8.95;;;;;;;23.07;51.21;94519.94;5065233;28;20028;-76
2023/06/13 08:17:17;;;;;;;12.35;9.55;;;;;;;23.14;50.61;94514.47;5065611;28;20032;-77
2023/06/13 08:19:48;;;;;;;11.15;8.93;;;;;;;23.15;50.98;94516.00;5067089;28;20040;-78
2023/06/13 08:22:14;;;;;;;11.38;9.93;;;;;;;23.29;50.73;94516.84;5072585;28;20028;-78
2023/06/13 08:24:40;;;;;;;12.63;10.38;;;;;;;23.48;50.13;94520.38;5071004;28;20048;-78
2023/06/13 08:27:07;;;;;;;14.82;9.90;;;;;;;23.65;50.08;94519.41;5065459;28;20025;-77
2023/06/13 08:29:33;;;;;;;9.73;8.52;;;;;;;23.68;49.95;94515.53;5065355;28;20549;-78
2023/06/13 08:31:59;;;;;;;11.32;8.70;;;;;;;23.66;49.74;94506.88;5064842;28;20029;-78
2023/06/13 08:34:24;;;;;;;10.20;8.82;;;;;;;23.64;49.62;94503.88;5063881;28;20623;-78
2023/06/13 08:36:50;;;;;;;11.18;9.73;;;;;;;23.66;49.64;94504.09;5066194;28;20041;-78
2023/06/13 08:39:15;;;;;;;10.35;8.90;;;;;;;23.70;49.03;94501.72;5063545;28;20024;-78
2023/06/13 08:41:41;;;;;;;13.15;9.95;;;;;;;23.58;49.68;94507.47;5065877;28;20032;-78
2023/06/13 08:44:07;;;;;;;10.85;9.50;;;;;;;23.67;49.17;94500.75;5065168;28;20020;-78
2023/06/13 08:46:33;;;;;;;12.10;10.55;;;;;;;23.70;49.09;94507.34;5065306;28;20376;-78
2023/06/13 08:48:59;;;;;;;11.40;9.85;;;;;;;23.69;49.54;94505.84;5063779;28;20082;-77
2023/06/13 08:51:30;;;;;;;13.13;9.10;;;;;;;23.67;48.95;94502.78;5064939;28;20028;-77
2023/06/13 08:53:59;;;;;;;12.70;8.77;;;;;;;23.66;48.98;94518.88;5064494;28;20119;-78
2023/06/13 08:56:27;;;;;;;13.73;9.40;;;;;;;23.62;48.87;94504.38;5064500;28;20021;-77
2023/06/13 08:59:00;;;;;;;12.98;9.32;;;;;;;23.54;49.11;94507.03;5064132;28;20032;-78
2023/06/13 09:01:27;;;;;;;11.30;9.85;;;;;;;23.56;48.70;94515.66;5063306;28;20060;-78
2023/06/13 09:03:54;;;;;;;12.00;9.15;;;;;;;23.56;49.28;94512.84;5063758;28;20115;-77
2023/06/13 09:06:19;;;;;;;11.98;9.48;;;;;;;23.54;50.04;94506.28;5065262;28;20044;-77
2023/06/13 09:08:46;;;;;;;8.38;7.25;;;;;;;23.60;50.07;94509.75;5064518;28;20415;-78
2023/06/13 09:11:11;;;;;;;10.20;6.78;;;;;;;23.67;50.09;94511.22;5064196;28;20025;-78
2023/06/13 09:13:37;;;;;;;6.78;5.50;;;;;;;23.68;50.05;94515.53;5062963;28;20035;-78
2023/06/13 09:16:03;;;;;;;7.45;5.20;;;;;;;23.78;49.53;94516.66;5064057;28;20021;-78
2023/06/13 09:18:30;;;;;;;6.50;5.60;;;;;;;23.82;49.79;94517.84;5064173;28;20027;-78
2023/06/13 09:20:56;;;;;;;8.90;4.65;;;;;;;23.71;50.14;94520.06;5063751;28;20429;-76
2023/06/13 09:23:22;;;;;;;5.65;3.95;;;;;;;23.49;50.53;94510.66;5064838;28;20562;-78
2023/06/13 09:25:48;;;;;;;4.90;4.40;;;;;;;23.42;49.51;94513.34;5065065;28;20024;-78
2023/06/13 09:28:27;;;;;;;6.07;4.22;;;;;;;23.28;49.69;94521.69;5065445;28;20028;-77
2023/06/13 09:30:53;;;;;;;6.63;4.63;;;;;;;23.22;50.62;94521.00;5062977;28;20495;-74
2023/06/13 09:33:21;;;;;;;6.50;4.47;;;;;;;23.10;50.63;94516.81;5063752;28;20020;-74
2023/06/13 09:35:47;;;;;;;7.65;5.15;;;;;;;23.03;51.52;94523.78;5062089;28;20427;-74
2023/06/13 09:38:13;;;;;;;8.50;5.15;;;;;;;22.88;51.35;94523.50;5063477;28;20033;-75
2023/06/13 09:40:39;;;;;;;6.50;4.70;;;;;;;22.73;52.20;94520.31;5064956;28;20051;-75
2023/06/13 09:43:04;;;;;;;5.63;4.82;;;;;;;22.46;52.48;94516.53;5063526;28;20540;-73
2023/06/13 09:45:30;;;;;;;21.45;5.55;;;;;;;22.53;53.04;94510.34;5063775;28;20027;-75
2023/06/13 09:47:55;;;;;;;8.70;5.28;;;;;;;22.47;52.61;94513.19;5064220;28;20032;-75
2023/06/13 09:50:22;;;;;;;6.07;4.95;;;;;;;22.40;52.96;94505.41;5063842;28;20376;-77
2023/06/13 09:52:47;;;;;;;7.85;5.32;;;;;;;22.44;53.09;94511.47;5063725;28;20030;-77
2023/06/13 09:55:12;;;;;;;5.82;5.15;;;;;;;22.36;53.45;94515.38;5064753;28;20418;-76
2023/06/13 09:57:38;;;;;;;9.10;5.38;;;;;;;22.37;53.81;94517.66;5063816;28;20031;-78
2023/06/13 10:00:07;;;;;;;7.60;5.82;;;;;;;22.46;54.25;94514.50;5064465;28;20024;-77
2023/06/13 10:02:33;;;;;;;8.25;6.38;;;;;;;22.56;54.13;94512.09;5063480;28;20033;-77
2023/06/13 10:04:58;;;;;;;6.90;5.75;;;;;;;22.59;53.99;94519.44;5064403;28;20032;-74
2023/06/13 10:07:24;;;;;;;7.45;5.90;;;;;;;22.54;54.54;94520.28;5063587;28;20090;-74
2023/06/13 10:09:50;;;;;;;8.57;5.93;;;;;;;22.48;54.07;94511.16;5062314;28;20025;-74
2023/06/13 10:12:19;;;;;;;27.48;6.93;;;;;;;22.41;54.87;94517.34;5064977;28;20032;-75
2023/06/13 10:14:48;;;;;;;7.93;5.35;;;;;;;22.49;54.13;94513.44;5045752;28;20032;-78
2023/06/13 10:17:18;;;;;;;7.03;5.72;;;;;;;22.48;54.79;94513.97;5063298;28;20021;-74
2023/06/13 10:19:44;;;;;;;8.32;6.18;;;;;;;22.50;54.74;94514.97;5064212;28;20078;-74
2023/06/13 10:22:10;;;;;;;11.48;7.55;;;;;;;22.46;56.22;94497.69;5064222;28;20048;-73
2023/06/13 10:24:38;;;;;;;9.30;7.47;;;;;;;22.67;56.03;94503.56;5063606;28;20021;-75
2023/06/13 10:27:05;;;;;;;8.13;6.22;;;;;;;22.75;55.38;94509.34;5062536;28;20029;-74
2023/06/13 10:29:43;;;;;;;8.52;6.30;;;;;;;22.82;55.13;94499.56;5063547;28;20048;-76
2023/06/13 10:32:31;;;;;;;8.38;6.35;;;;;;;22.91;55.44;94511.22;5064200;28;20090;-73
2023/06/13 10:35:32;;;;;;;10.38;7.32;;;;;;;22.94;55.59;94510.16;5064208;28;20110;-74
2023/06/13 10:38:19;;;;;;;9.35;6.80;;;;;;;22.98;55.81;94510.59;5030696;28;20237;-74
2023/06/13 10:41:11;;;;;;;10.68;8.35;;;;;;;23.07;55.82;94517.13;5063523;28;20607;-74
2023/06/13 10:44:18;;;;;;;9.75;7.07;;;;;;;23.12;54.99;94511.47;5061890;28;20089;-75
2023/06/13 10:46:44;;;;;;;7.28;6.32;;;;;;;23.13;54.81;94509.41;5064900;28;20047;-75
2023/06/13 10:49:15;;;;;;;9.88;7.18;;;;;;;23.14;54.83;94510.91;5066107;28;20036;-75
2023/06/13 10:51:43;;;;;;;10.57;6.80;;;;;;;23.16;54.55;94502.72;5068511;28;20571;-76
2023/06/13 10:54:11;;;;;;;12.30;8.07;;;;;;;23.19;54.90;94510.09;5066581;28;20020;-74
2023/06/13 10:56:42;;;;;;;9.98;8.35;;;;;;;23.22;55.47;94495.75;5067874;28;20079;-74
2023/06/13 10:59:15;;;;;;;11.25;9.35;;;;;;;23.23;55.31;94505.69;5068158;28;20024;-75
2023/06/13 11:01:41;;;;;;;11.25;9.73;;;;;;;23.26;55.25;94499.03;5066130;28;20809;-74
2023/06/13 11:04:14;;;;;;;11.13;9.48;;;;;;;23.26;55.38;94503.88;5068168;28;20047;-75
2023/06/13 11:06:43;;;;;;;;;;;;;;;23.15;54.91;94492.81;5067794;28;20139;-74
2023/06/13 11:09:23;;;;;;;10.85;9.75;;;;;;;23.13;55.32;94495.41;5066279;28;20379;-73
2023/06/13 11:11:58;;;;;;;13.18;9.80;;;;;;;23.07;55.77;94498.28;5067777;28;20024;-72
2023/06/13 11:14:47;;;;;;;17.73;9.93;;;;;;;23.20;55.42;94492.72;5065776;28;20479;-74
2023/06/13 11:17:13;;;;;;;15.48;11.02;;;;;;;23.15;55.66;94492.81;5067321;28;20588;-75
2023/06/13 11:19:39;;;;;;;10.43;9.32;;;;;;;23.20;55.23;94494.78;5066799;28;20434;-75
2023/06/13 11:22:05;;;;;;;13.10;10.40;;;;;;;23.27;55.14;94496.97;5065924;28;20566;-73
2023/06/13 11:24:35;;;;;;;10.75;9.50;;;;;;;23.42;54.44;94500.06;5067162;28;20021;-76
2023/06/13 11:27:03;;;;;;;9.95;8.90;;;;;;;23.51;53.47;94499.69;5048668;28;20025;-75